Time;durP1;ratioP1;P1;durP2;ratioP2;P2;SDS_P1;SDS_P2;PMS_P1;PMS_P2;Temp;Humidity;BMP_temperature;BMP_pressure;BME280_temperature;BME280_humidity;BME280_pressure;Samples;Min_cycle;Max_cycle;Signal;HPM_P1;HPM_P2
2024/03/17 00:00:31;;;;;;;1.40;1.30;;;10.90;92.80;;;;;;5068025;28;20106;-78
2024/03/17 00:02:57;;;;;;;2.08;1.30;;;10.90;92.30;;;;;;5070448;28;20048;-77
2024/03/17 00:05:26;;;;;;;2.40;1.30;;;10.90;93.30;;;;;;5059010;28;20087;-77
2024/03/17 00:07:52;;;;;;;1.90;1.50;;;10.90;92.30;;;;;;5052382;28;20056;-76
2024/03/17 00:10:19;;;;;;;2.30;1.45;;;10.90;93.10;;;;;;5052093;28;20053;-77
2024/03/17 00:12:45;;;;;;;4.13;1.33;;;10.90;92.30;;;;;;5045854;28;20060;-77
2024/03/17 00:15:11;;;;;;;3.00;1.30;;;10.80;91.70;;;;;;5065431;28;20064;-76
2024/03/17 00:17:37;;;;;;;1.38;1.05;;;10.80;92.70;;;;;;5063337;28;20049;-77
2024/03/17 00:20:09;;;;;;;2.88;1.25;;;10.80;92.40;;;;;;5052543;28;20075;-77
2024/03/17 00:22:39;;;;;;;1.90;1.50;;;10.80;92.30;;;;;;5076827;28;20060;-77
2024/03/17 00:25:07;;;;;;;1.50;1.40;;;10.80;92.20;;;;;;5062176;28;20057;-77
2024/03/17 00:27:33;;;;;;;1.60;1.50;;;10.80;92.40;;;;;;5055377;28;20101;-77
2024/03/17 00:29:59;;;;;;;1.20;1.10;;;10.80;91.80;;;;;;5068640;28;20052;-77
2024/03/17 00:32:27;;;;;;;2.65;1.60;;;10.80;91.60;;;;;;5069544;28;20510;-77
2024/03/17 00:34:53;;;;;;;2.53;1.50;;;10.80;91.40;;;;;;5069729;28;20063;-76
2024/03/17 00:37:21;;;;;;;1.40;1.10;;;10.80;92.00;;;;;;5057098;28;20491;-76
2024/03/17 00:39:47;;;;;;;3.47;1.45;;;10.80;91.70;;;;;;5072020;28;20124;-75
2024/03/17 00:42:14;;;;;;;1.30;1.20;;;10.80;91.20;;;;;;5071223;28;20060;-75
2024/03/17 00:44:41;;;;;;;2.13;1.60;;;10.80;90.90;;;;;;5072364;28;20458;-76
2024/03/17 00:47:08;;;;;;;1.73;1.50;;;10.80;91.30;;;;;;5056450;28;20690;-76
2024/03/17 00:49:34;;;;;;;3.17;1.70;;;10.80;90.50;;;;;;5080021;28;20099;-75
2024/03/17 00:51:59;;;;;;;1.75;1.30;;;10.80;90.60;;;;;;5055385;28;20170;-75
2024/03/17 00:54:28;;;;;;;1.63;1.45;;;10.80;90.60;;;;;;5055276;28;20055;-76
2024/03/17 00:56:54;;;;;;;2.80;1.60;;;10.80;89.40;;;;;;5048792;28;20064;-75
2024/03/17 00:59:22;;;;;;;2.78;1.73;;;10.80;89.30;;;;;;5055661;28;20056;-76
2024/03/17 01:01:48;;;;;;;3.17;1.63;;;10.80;89.10;;;;;;5064521;28;20060;-75
2024/03/17 01:04:14;;;;;;;2.35;1.90;;;10.80;88.90;;;;;;5065958;28;20052;-75
2024/03/17 01:06:40;;;;;;;3.63;2.00;;;10.80;88.10;;;;;;5063054;28;20053;-76
2024/03/17 01:09:08;;;;;;;4.13;1.75;;;10.80;88.70;;;;;;5059665;28;20049;-76
2024/03/17 01:11:34;;;;;;;4.13;1.92;;;10.80;88.00;;;;;;5057830;28;20044;-76
2024/03/17 01:14:03;;;;;;;3.78;1.98;;;10.80;89.00;;;;;;5073495;28;20045;-76
2024/03/17 01:16:33;;;;;;;2.35;1.60;;;10.80;90.00;;;;;;5055297;28;20067;-76
2024/03/17 01:18:59;;;;;;;2.53;1.55;;;10.80;88.10;;;;;;5053716;28;20049;-75
2024/03/17 01:21:25;;;;;;;1.88;1.45;;;10.70;86.30;;;;;;5053481;28;20052;-76
2024/03/17 01:23:51;;;;;;;2.00;1.67;;;10.70;87.70;;;;;;5071959;28;20091;-76
2024/03/17 01:26:17;;;;;;;5.05;1.83;;;10.70;86.40;;;;;;5054282;28;20056;-76
2024/03/17 01:28:48;;;;;;;2.20;1.70;;;10.70;87.70;;;;;;5058638;28;20384;-76
2024/03/17 01:31:14;;;;;;;2.92;1.60;;;10.70;87.10;;;;;;5059115;28;20445;-76
2024/03/17 01:33:42;;;;;;;2.10;1.77;;;10.70;87.50;;;;;;5054647;28;20078;-76
2024/03/17 01:36:08;;;;;;;2.25;1.63;;;10.70;86.60;;;;;;5061917;28;20415;-76
2024/03/17 01:38:34;;;;;;;2.03;1.75;;;10.60;86.90;;;;;;5062209;28;20052;-75
2024/03/17 01:41:06;;;;;;;6.30;2.05;;;10.60;86.30;;;;;;5054699;28;20044;-75
2024/03/17 01:43:32;;;;;;;2.83;1.60;;;10.60;86.80;;;;;;5082561;28;20452;-76
2024/03/17 01:45:59;;;;;;;3.45;1.88;;;10.70;87.00;;;;;;5065939;28;20057;-75
2024/03/17 01:48:26;;;;;;;4.53;1.70;;;10.60;87.60;;;;;;5051928;28;20052;-75
2024/03/17 01:50:55;;;;;;;4.60;2.05;;;10.60;88.70;;;;;;5069384;28;20060;-76
2024/03/17 01:53:25;;;;;;;3.10;2.00;;;10.60;87.40;;;;;;5058458;28;20403;-76
2024/03/17 01:55:54;;;;;;;2.35;2.15;;;10.60;86.60;;;;;;5053105;28;20056;-75
2024/03/17 01:58:22;;;;;;;2.00;1.67;;;10.60;87.30;;;;;;5053232;28;20057;-76
2024/03/17 02:00:51;;;;;;;3.00;1.98;;;10.60;86.40;;;;;;5053555;28;20399;-76
2024/03/17 02:03:18;;;;;;;3.85;1.98;;;10.60;86.80;;;;;;5055491;28;20056;-76
2024/03/17 02:05:47;;;;;;;2.85;1.90;;;10.60;87.20;;;;;;5056763;28;20045;-76
2024/03/17 02:08:13;;;;;;;1.98;1.70;;;10.60;86.90;;;;;;5055051;28;20552;-75
2024/03/17 02:10:42;;;;;;;2.20;2.00;;;10.60;87.60;;;;;;5049300;28;20048;-76
2024/03/17 02:13:08;;;;;;;2.58;1.88;;;10.70;89.50;;;;;;5079974;28;20505;-76
2024/03/17 02:15:34;;;;;;;3.55;2.28;;;10.70;89.50;;;;;;5063658;28;20052;-76
2024/03/17 02:18:05;;;;;;;4.93;2.08;;;10.70;87.80;;;;;;5054341;28;20491;-76
2024/03/17 02:23:15;;;;;;;2.70;2.30;;;10.70;86.00;;;;;;5069494;28;20457;-75
2024/03/17 02:25:41;;;;;;;2.03;1.77;;;10.70;85.60;;;;;;5057621;28;20107;-76
2024/03/17 02:28:07;;;;;;;4.13;2.35;;;10.70;84.50;;;;;;5052598;28;20044;-76
2024/03/17 02:30:33;;;;;;;2.63;1.95;;;10.70;86.40;;;;;;5052224;28;20102;-76
2024/03/17 02:32:59;;;;;;;4.22;2.30;;;10.80;86.10;;;;;;5053425;28;20049;-75
2024/03/17 02:35:26;;;;;;;2.80;2.40;;;10.80;86.80;;;;;;5052488;28;20049;-75
2024/03/17 02:37:52;;;;;;;3.20;2.40;;;10.80;86.00;;;;;;5071981;28;20060;-75
2024/03/17 02:40:20;;;;;;;2.90;2.60;;;10.80;84.90;;;;;;5054329;28;20056;-76
2024/03/17 02:42:49;;;;;;;3.33;2.83;;;10.80;84.50;;;;;;5068709;28;20854;-75
2024/03/17 02:45:15;;;;;;;3.13;2.33;;;10.80;84.40;;;;;;5054491;28;20495;-76
2024/03/17 02:47:41;;;;;;;2.35;2.15;;;10.80;84.50;;;;;;5053970;28;20110;-76
2024/03/17 02:50:10;;;;;;;3.97;2.33;;;10.80;84.60;;;;;;5053031;28;20762;-75
2024/03/17 02:52:38;;;;;;;3.88;2.47;;;10.80;84.10;;;;;;5063279;28;20379;-76
2024/03/17 02:55:07;;;;;;;3.58;2.30;;;10.80;85.20;;;;;;5061871;28;20060;-75
2024/03/17 02:57:33;;;;;;;4.88;2.40;;;10.80;84.90;;;;;;5043614;28;20052;-75
2024/03/17 03:00:04;;;;;;;2.90;2.47;;;10.80;84.70;;;;;;5075287;28;20380;-75
2024/03/17 03:02:32;;;;;;;3.40;2.38;;;10.80;84.80;;;;;;5065523;28;20491;-75
2024/03/17 03:04:58;;;;;;;3.10;2.40;;;10.80;84.50;;;;;;5067583;28;20411;-76
2024/03/17 03:07:26;;;;;;;3.05;2.25;;;10.80;86.50;;;;;;5068557;28;20041;-75
2024/03/17 03:09:52;;;;;;;3.42;2.47;;;10.80;86.50;;;;;;5068179;28;20506;-76
2024/03/17 03:12:23;;;;;;;3.47;2.63;;;10.80;86.00;;;;;;5051537;28;20053;-76
2024/03/17 03:14:49;;;;;;;4.13;2.65;;;10.80;86.50;;;;;;5052212;28;20048;-76
2024/03/17 03:17:14;;;;;;;3.20;2.45;;;10.80;85.20;;;;;;5051092;28;20063;-76
2024/03/17 03:19:40;;;;;;;3.13;2.40;;;10.80;86.00;;;;;;5068208;28;20052;-76
2024/03/17 03:22:06;;;;;;;2.95;2.50;;;10.70;86.10;;;;;;5049941;28;20048;-75
2024/03/17 03:24:32;;;;;;;3.60;3.05;;;10.80;85.40;;;;;;5061285;28;20052;-75
2024/03/17 03:27:00;;;;;;;3.72;2.53;;;10.80;85.20;;;;;;5074778;28;20071;-75
2024/03/17 03:29:27;;;;;;;4.05;2.42;;;10.80;85.30;;;;;;5058886;28;20055;-76
2024/03/17 03:31:53;;;;;;;3.50;2.70;;;10.80;85.70;;;;;;5045008;28;20060;-76
2024/03/17 03:34:19;;;;;;;3.58;2.80;;;10.70;84.70;;;;;;5045559;28;20407;-76
2024/03/17 03:36:47;;;;;;;3.25;2.60;;;10.70;85.00;;;;;;5063567;28;20063;-76
2024/03/17 03:39:15;;;;;;;3.35;3.05;;;10.70;85.30;;;;;;5046556;28;20060;-75
2024/03/17 03:41:42;;;;;;;3.08;2.70;;;10.70;84.80;;;;;;5052560;28;20395;-75
2024/03/17 03:44:10;;;;;;;3.22;2.78;;;10.70;84.80;;;;;;5049264;28;20057;-76
2024/03/17 03:46:36;;;;;;;4.88;3.22;;;10.70;85.10;;;;;;5070199;28;20550;-76
2024/03/17 03:49:02;;;;;;;4.55;3.72;;;10.70;85.60;;;;;;5052240;28;20049;-76
2024/03/17 03:51:30;;;;;;;4.18;3.40;;;10.70;84.70;;;;;;5050907;28;20048;-76
2024/03/17 03:53:56;;;;;;;6.05;2.95;;;10.60;85.50;;;;;;5053729;28;20076;-75
2024/03/17 03:56:25;;;;;;;3.30;2.92;;;10.70;85.90;;;;;;5054579;28;20053;-76
2024/03/17 03:58:51;;;;;;;4.20;3.20;;;10.70;85.60;;;;;;5052250;28;20056;-75
2024/03/17 04:01:21;;;;;;;5.30;3.42;;;10.70;85.60;;;;;;5058816;28;20461;-75
2024/03/17 04:03:49;;;;;;;4.05;3.22;;;10.60;85.30;;;;;;5061828;28;20446;-76
2024/03/17 04:06:16;;;;;;;4.90;2.90;;;10.60;86.90;;;;;;5056421;28;20048;-76
2024/03/17 04:08:42;;;;;;;4.80;3.15;;;10.50;87.20;;;;;;5081716;28;20057;-76
2024/03/17 04:11:09;;;;;;;6.45;3.20;;;10.50;86.70;;;;;;5064518;28;20506;-76
2024/03/17 04:13:38;;;;;;;3.92;3.40;;;10.50;86.90;;;;;;5063356;28;20056;-76
2024/03/17 04:16:07;;;;;;;4.72;3.65;;;10.50;86.90;;;;;;5061047;28;20098;-76
2024/03/17 04:18:38;;;;;;;4.97;3.53;;;10.50;87.00;;;;;;5054807;28;20053;-76
2024/03/17 04:21:09;;;;;;;3.58;3.00;;;10.60;88.00;;;;;;5042124;28;20465;-76
2024/03/17 04:23:35;;;;;;;4.78;3.60;;;10.60;86.80;;;;;;5054645;28;20057;-75
2024/03/17 04:26:04;;;;;;;4.78;3.20;;;10.50;87.90;;;;;;5066949;28;20746;-76
2024/03/17 04:28:30;;;;;;;4.63;3.22;;;10.40;88.40;;;;;;5074176;28;20057;-76
2024/03/17 04:31:11;;;;;;;3.60;3.28;;;10.40;89.40;;;;;;5073440;28;20121;-75
2024/03/17 04:33:39;;;;;;;4.10;3.17;;;10.40;89.50;;;;;;5053667;28;20510;-76
2024/03/17 04:36:06;;;;;;;3.83;3.13;;;10.40;90.30;;;;;;5056647;28;20418;-76
2024/03/17 04:38:34;;;;;;;4.10;3.13;;;10.40;90.30;;;;;;5052986;28;20061;-75
2024/03/17 04:41:08;;;;;;;4.35;2.90;;;10.40;90.00;;;;;;5065655;28;20041;-75
2024/03/17 04:43:34;;;;;;;6.65;3.10;;;10.40;90.40;;;;;;5061434;28;20398;-76
2024/03/17 04:46:05;;;;;;;3.95;3.15;;;10.30;90.50;;;;;;5055763;28;20075;-76
2024/03/17 04:48:34;;;;;;;4.00;3.22;;;10.30;90.60;;;;;;5047634;28;20069;-76
2024/03/17 04:51:00;;;;;;;3.78;3.08;;;10.20;91.20;;;;;;5065472;28;20048;-75
2024/03/17 04:53:27;;;;;;;8.93;3.40;;;10.20;91.70;;;;;;5051040;28;20052;-75
2024/03/17 04:56:05;;;;;;;5.25;3.50;;;10.20;91.80;;;;;;5066741;28;20056;-75
2024/03/17 04:58:34;;;;;;;4.68;3.95;;;10.10;92.20;;;;;;5058046;28;20075;-76
2024/03/17 05:01:08;;;;;;;7.32;4.18;;;10.10;91.90;;;;;;5054025;28;20049;-76
2024/03/17 05:03:36;;;;;;;4.30;3.47;;;10.00;91.90;;;;;;5055373;28;20052;-75
2024/03/17 05:06:04;;;;;;;5.68;3.65;;;10.00;92.40;;;;;;5053959;28;20483;-76
2024/03/17 05:08:31;;;;;;;4.57;3.60;;;10.00;92.50;;;;;;5071131;28;20411;-76
2024/03/17 05:11:08;;;;;;;7.00;3.50;;;10.00;92.40;;;;;;5058557;28;20053;-75
2024/03/17 05:13:39;;;;;;;5.35;3.50;;;10.00;92.60;;;;;;5056753;28;20052;-75
2024/03/17 05:16:05;;;;;;;4.57;3.67;;;10.00;92.30;;;;;;5054283;28;20045;-76
2024/03/17 05:18:35;;;;;;;6.57;3.60;;;10.00;92.00;;;;;;5059784;28;20045;-76
2024/03/17 05:21:05;;;;;;;5.55;3.30;;;9.90;92.50;;;;;;5054859;28;20430;-75
2024/03/17 05:23:34;;;;;;;5.90;3.83;;;9.90;92.80;;;;;;5070595;28;20064;-76
2024/03/17 05:26:00;;;;;;;5.93;3.40;;;9.80;93.10;;;;;;5063923;28;20051;-75
2024/03/17 05:28:30;;;;;;;6.60;4.20;;;9.80;93.10;;;;;;5061738;28;20439;-76
2024/03/17 05:30:59;;;;;;;6.10;4.25;;;9.80;93.10;;;;;;5053995;28;20087;-75
2024/03/17 05:33:26;;;;;;;4.47;4.00;;;9.80;93.60;;;;;;5058690;28;20087;-75
2024/03/17 05:35:57;;;;;;;4.70;3.50;;;9.80;93.30;;;;;;5057804;28;20040;-76
2024/03/17 05:38:24;;;;;;;5.15;3.60;;;9.70;93.10;;;;;;5053743;28;20049;-75
2024/03/17 05:41:03;;;;;;;4.35;3.45;;;9.70;94.00;;;;;;5053725;28;20060;-76
2024/03/17 05:43:37;;;;;;;6.30;3.88;;;9.80;94.30;;;;;;5069554;28;20097;-76
2024/03/17 05:46:11;;;;;;;5.75;3.80;;;9.70;93.90;;;;;;5053884;28;20072;-76
2024/03/17 05:48:42;;;;;;;6.30;3.60;;;9.70;94.10;;;;;;5067508;28;20049;-76
2024/03/17 05:51:12;;;;;;;5.70;3.92;;;9.60;94.30;;;;;;5056697;28;20446;-75
2024/03/17 05:53:44;;;;;;;5.15;3.67;;;9.70;94.90;;;;;;5067938;28;20049;-76
2024/03/17 05:56:13;;;;;;;6.38;3.95;;;9.70;95.60;;;;;;5053798;28;20052;-76
2024/03/17 05:58:39;;;;;;;4.88;3.65;;;9.80;95.50;;;;;;5062065;28;20053;-76
2024/03/17 06:01:08;;;;;;;9.40;3.63;;;9.80;95.90;;;;;;5054255;28;20048;-75
2024/03/17 06:03:38;;;;;;;3.65;3.28;;;9.90;96.00;;;;;;5052834;28;20048;-76
2024/03/17 06:06:11;;;;;;;4.80;4.03;;;9.90;96.20;;;;;;5063405;28;20044;-76
2024/03/17 06:08:39;;;;;;;4.25;3.85;;;9.90;95.80;;;;;;5068643;28;20388;-76
2024/03/17 06:11:05;;;;;;;4.50;3.65;;;9.90;95.50;;;;;;5053125;28;20049;-75
2024/03/17 06:13:31;;;;;;;6.28;4.10;;;10.00;94.80;;;;;;5059082;28;20453;-76
2024/03/17 06:16:00;;;;;;;6.28;4.28;;;10.00;94.90;;;;;;5052731;28;20057;-75
2024/03/17 06:18:29;;;;;;;4.10;3.70;;;9.90;95.40;;;;;;5071375;28;20377;-75
2024/03/17 06:20:58;;;;;;;5.88;4.32;;;9.90;96.00;;;;;;5069087;28;20045;-76
2024/03/17 06:23:26;;;;;;;6.03;4.20;;;10.00;94.90;;;;;;5071280;28;20052;-75
2024/03/17 06:25:55;;;;;;;5.88;3.97;;;10.10;94.50;;;;;;5069399;28;20040;-75
2024/03/17 06:28:24;;;;;;;6.35;4.32;;;10.10;93.00;;;;;;5042704;28;20061;-75
2024/03/17 06:30:59;;;;;;;5.15;3.67;;;10.20;92.90;;;;;;5052733;28;20049;-75
2024/03/17 06:33:26;;;;;;;7.72;4.25;;;10.20;93.10;;;;;;5066474;28;20045;-75
2024/03/17 06:35:52;;;;;;;7.45;4.43;;;10.20;92.70;;;;;;5064362;28;20110;-76
2024/03/17 06:38:17;;;;;;;6.88;3.88;;;10.20;93.10;;;;;;5080331;28;20422;-76
2024/03/17 06:40:51;;;;;;;5.35;4.22;;;10.30;92.30;;;;;;5054251;28;20109;-75
2024/03/17 06:43:18;;;;;;;9.15;4.20;;;10.30;92.40;;;;;;5062634;28;20056;-76
2024/03/17 06:45:55;;;;;;;5.78;3.97;;;10.20;92.30;;;;;;5063566;28;20048;-76
2024/03/17 06:48:21;;;;;;;7.82;4.80;;;10.30;93.30;;;;;;5074432;28;20052;-76
2024/03/17 06:50:47;;;;;;;7.70;4.78;;;10.20;93.00;;;;;;5057938;28;20541;-75
2024/03/17 06:53:13;;;;;;;7.45;5.25;;;10.30;93.40;;;;;;5055203;28;20049;-75
2024/03/17 06:55:38;;;;;;;15.68;8.55;;;10.30;92.70;;;;;;5071994;28;20053;-76
2024/03/17 06:58:04;;;;;;;19.65;9.13;;;10.50;92.20;;;;;;5054533;28;20184;-75
2024/03/17 07:00:32;;;;;;;10.85;6.28;;;10.60;92.10;;;;;;5055300;28;20052;-75
2024/03/17 07:03:03;;;;;;;11.88;5.53;;;10.70;91.70;;;;;;5055679;28;20106;-76
2024/03/17 07:05:29;;;;;;;9.85;5.50;;;10.80;90.50;;;;;;5068351;28;20491;-75
2024/03/17 07:07:57;;;;;;;11.25;6.13;;;10.80;90.20;;;;;;5061721;28;20052;-76
2024/03/17 07:10:23;;;;;;;8.75;6.28;;;10.90;90.30;;;;;;5066549;28;20056;-76
2024/03/17 07:12:51;;;;;;;5.97;5.32;;;11.00;90.50;;;;;;5064585;28;20403;-76
2024/03/17 07:15:18;;;;;;;10.27;6.00;;;11.10;89.40;;;;;;5058564;28;20113;-76
2024/03/17 07:17:44;;;;;;;9.50;5.75;;;11.20;88.00;;;;;;5052322;28;20052;-76
2024/03/17 07:20:13;;;;;;;8.68;5.93;;;11.30;88.00;;;;;;5046203;28;20056;-76
2024/03/17 07:22:39;;;;;;;9.23;6.40;;;11.40;85.70;;;;;;5060140;28;20053;-76
2024/03/17 07:25:05;;;;;;;11.23;6.35;;;11.50;85.10;;;;;;5051122;28;20102;-75
2024/03/17 07:27:32;;;;;;;8.63;6.28;;;11.50;84.10;;;;;;5073860;28;20044;-76
2024/03/17 07:29:58;;;;;;;10.90;6.30;;;11.60;85.10;;;;;;5054188;28;20045;-76
2024/03/17 07:32:26;;;;;;;8.40;6.18;;;11.70;83.30;;;;;;5053743;28;20049;-76
2024/03/17 07:34:52;;;;;;;8.88;6.10;;;11.80;83.50;;;;;;5050305;28;20411;-76
2024/03/17 07:37:18;;;;;;;8.25;6.85;;;11.90;85.10;;;;;;5068363;28;20053;-75
2024/03/17 07:39:49;;;;;;;8.32;6.28;;;11.90;85.90;;;;;;5051515;28;20084;-76
2024/03/17 07:42:15;;;;;;;11.30;6.97;;;11.90;83.70;;;;;;5051684;28;20182;-76
2024/03/17 07:44:44;;;;;;;13.13;6.63;;;11.90;84.50;;;;;;5061707;28;20056;-76
2024/03/17 07:47:10;;;;;;;10.40;8.00;;;11.90;84.20;;;;;;5051318;28;20041;-76
2024/03/17 07:49:36;;;;;;;11.48;8.38;;;11.90;87.00;;;;;;5053356;28;20098;-76
2024/03/17 07:52:02;;;;;;;12.70;9.02;;;11.90;84.80;;;;;;5063043;28;20049;-76
2024/03/17 07:54:28;;;;;;;13.60;9.85;;;11.90;84.60;;;;;;5064406;28;20461;-76
2024/03/17 07:56:55;;;;;;;13.40;8.60;;;11.80;85.10;;;;;;5046082;28;20040;-76
2024/03/17 07:59:20;;;;;;;17.73;11.75;;;11.80;85.30;;;;;;5043724;28;20053;-75
2024/03/17 08:01:46;;;;;;;12.82;9.07;;;11.90;85.90;;;;;;5043047;28;20052;-76
2024/03/17 08:04:15;;;;;;;18.08;12.27;;;11.90;85.50;;;;;;5048656;28;20067;-75
2024/03/17 08:06:41;;;;;;;12.90;10.05;;;12.00;86.00;;;;;;5062527;28;20053;-75
2024/03/17 08:09:08;;;;;;;12.70;8.95;;;12.00;86.60;;;;;;5054588;28;20143;-75
2024/03/17 08:11:38;;;;;;;22.40;11.50;;;12.10;86.30;;;;;;5053045;28;20121;-76
2024/03/17 08:14:05;;;;;;;25.67;13.05;;;12.10;86.90;;;;;;5042918;28;20049;-76
2024/03/17 08:16:33;;;;;;;15.00;9.82;;;12.10;85.80;;;;;;5059536;28;20433;-76
2024/03/17 08:18:59;;;;;;;17.65;10.77;;;12.20;85.10;;;;;;5055253;28;20053;-76
2024/03/17 08:21:28;;;;;;;15.27;9.73;;;12.20;84.10;;;;;;5045708;28;20561;-76
2024/03/17 08:23:54;;;;;;;16.85;10.30;;;12.20;83.40;;;;;;5063702;28;20049;-75
2024/03/17 08:26:20;;;;;;;12.65;8.85;;;12.30;83.70;;;;;;5057305;28;20103;-76
2024/03/17 08:28:46;;;;;;;21.08;11.70;;;12.30;83.10;;;;;;5042405;28;20107;-75
2024/03/17 08:31:12;;;;;;;19.30;11.85;;;12.40;83.60;;;;;;5068165;28;20118;-75
2024/03/17 08:33:38;;;;;;;15.23;10.55;;;12.40;83.30;;;;;;5046206;28;20399;-76
2024/03/17 08:36:07;;;;;;;16.25;10.30;;;12.50;80.40;;;;;;5059274;28;20052;-76
2024/03/17 08:38:34;;;;;;;12.88;9.52;;;12.50;79.80;;;;;;5060357;28;20060;-75
2024/03/17 08:41:10;;;;;;;14.88;9.57;;;12.70;81.40;;;;;;5065343;28;20044;-76
2024/03/17 08:43:41;;;;;;;14.38;10.10;;;12.70;78.90;;;;;;5067801;28;20388;-76
2024/03/17 08:46:11;;;;;;;13.02;9.35;;;12.80;77.30;;;;;;5065772;28;20055;-76
2024/03/17 08:48:38;;;;;;;12.68;9.02;;;12.90;75.10;;;;;;5055272;28;20056;-75
2024/03/17 08:51:08;;;;;;;12.02;8.30;;;13.00;75.20;;;;;;5053837;28;20056;-75
2024/03/17 08:53:35;;;;;;;12.13;9.25;;;13.20;73.70;;;;;;5067544;28;20408;-74
2024/03/17 08:56:06;;;;;;;12.15;8.88;;;13.40;72.50;;;;;;5071851;28;20052;-74
2024/03/17 08:58:32;;;;;;;11.10;8.60;;;13.50;71.30;;;;;;5070761;28;20056;-75
2024/03/17 09:00:58;;;;;;;14.45;8.93;;;13.60;71.30;;;;;;5084736;28;20410;-75
2024/03/17 09:03:27;;;;;;;11.13;8.73;;;13.80;72.70;;;;;;5070289;28;20045;-75
2024/03/17 09:05:55;;;;;;;11.52;8.20;;;14.00;71.50;;;;;;5055876;28;20424;-75
2024/03/17 09:08:23;;;;;;;10.20;8.35;;;14.10;67.90;;;;;;5066538;28;20237;-75
2024/03/17 09:10:53;;;;;;;11.80;8.95;;;14.20;68.50;;;;;;5054961;28;20057;-75
2024/03/17 09:13:24;;;;;;;11.80;9.07;;;14.40;68.70;;;;;;5047697;28;20076;-76
2024/03/17 09:16:01;;;;;;;14.98;10.90;;;14.40;69.40;;;;;;5081136;28;20834;-74
2024/03/17 09:18:28;;;;;;;14.10;10.43;;;14.40;69.60;;;;;;5070543;28;20053;-74
2024/03/17 09:21:04;;;;;;;11.75;8.30;;;14.20;69.50;;;;;;5064982;28;20049;-73
2024/03/17 09:23:34;;;;;;;11.18;7.80;;;14.10;68.70;;;;;;5071609;28;20416;-74
2024/03/17 09:26:04;;;;;;;11.15;8.23;;;14.10;69.10;;;;;;5059613;28;20544;-74
2024/03/17 09:28:31;;;;;;;9.75;8.00;;;14.20;68.80;;;;;;5057679;28;20419;-73
2024/03/17 09:30:58;;;;;;;9.90;7.32;;;14.40;66.60;;;;;;5072540;28;20053;-74
2024/03/17 09:33:26;;;;;;;10.68;7.82;;;14.60;65.10;;;;;;5058746;28;20055;-74
2024/03/17 09:36:00;;;;;;;9.15;7.43;;;14.60;65.50;;;;;;5049837;28;20111;-75
2024/03/17 09:38:29;;;;;;;10.32;7.15;;;14.60;64.80;;;;;;5064202;28;20044;-75
2024/03/17 09:41:00;;;;;;;10.55;6.60;;;14.60;65.40;;;;;;5069843;28;20049;-75
2024/03/17 09:43:33;;;;;;;9.73;7.05;;;14.60;64.40;;;;;;5053578;28;20048;-75
2024/03/17 09:46:01;;;;;;;10.55;7.40;;;14.60;62.30;;;;;;5068545;28;20044;-75
2024/03/17 09:48:28;;;;;;;8.98;6.88;;;14.70;62.30;;;;;;5047339;28;20071;-79
2024/03/17 09:50:57;;;;;;;8.43;6.85;;;14.80;60.60;;;;;;5064851;28;20483;-78
2024/03/17 09:53:32;;;;;;;14.77;7.25;;;14.90;61.20;;;;;;5062182;28;20048;-76
2024/03/17 09:56:16;;;;;;;9.65;7.28;;;15.00;62.80;;;;;;5069198;28;20059;-75
2024/03/17 09:58:42;;;;;;;9.83;6.73;;;14.90;62.90;;;;;;5058038;28;20060;-75
2024/03/17 10:01:09;;;;;;;11.18;8.13;;;14.80;62.20;;;;;;5053635;28;20060;-73
2024/03/17 10:04:01;;;;;;;8.48;6.93;;;14.70;63.70;;;;;;5072661;28;20056;-75
2024/03/17 10:06:27;;;;;;;11.50;7.05;;;14.60;63.50;;;;;;5055359;28;20565;-74
2024/03/17 10:08:57;;;;;;;11.70;6.95;;;14.50;61.80;;;;;;5053180;28;20056;-74
2024/03/17 10:11:31;;;;;;;13.18;7.03;;;14.70;64.00;;;;;;5052732;28;20052;-74
2024/03/17 10:14:05;;;;;;;10.15;7.10;;;15.20;61.90;;;;;;5054980;28;20049;-73
2024/03/17 10:16:38;;;;;;;8.55;6.25;;;15.50;59.80;;;;;;5070013;28;20060;-73
2024/03/17 10:19:07;;;;;;;9.95;7.55;;;15.70;58.90;;;;;;5075050;28;20057;-74
2024/03/17 10:21:33;;;;;;;9.65;7.55;;;15.70;58.30;;;;;;5059339;28;20079;-73
2024/03/17 10:24:13;;;;;;;11.23;6.85;;;15.70;59.50;;;;;;5059632;28;20053;-74
2024/03/17 10:26:50;;;;;;;8.38;6.53;;;16.30;59.40;;;;;;5070007;28;20095;-74
2024/03/17 10:29:35;;;;;;;9.27;6.72;;;16.90;56.10;;;;;;5060657;28;20044;-74
2024/03/17 10:32:16;;;;;;;8.05;5.88;;;17.10;55.10;;;;;;5068596;28;20560;-74
2024/03/17 10:34:43;;;;;;;7.63;6.35;;;17.00;54.60;;;;;;5063797;28;20090;-74
2024/03/17 10:37:13;;;;;;;9.35;6.65;;;16.90;55.90;;;;;;5066954;28;20103;-74
2024/03/17 10:39:41;;;;;;;8.85;6.10;;;17.00;54.20;;;;;;5066216;28;20052;-74
2024/03/17 10:42:08;;;;;;;7.78;5.95;;;17.20;54.20;;;;;;5069482;28;20060;-74
2024/03/17 10:44:36;;;;;;;7.85;5.88;;;17.30;54.00;;;;;;5070400;28;20045;-74
2024/03/17 10:47:09;;;;;;;7.28;5.50;;;18.10;53.30;;;;;;5064897;28;20107;-74
2024/03/17 10:49:37;;;;;;;13.32;5.60;;;19.30;51.00;;;;;;5051750;28;20056;-74
2024/03/17 10:52:12;;;;;;;5.97;5.35;;;20.80;48.10;;;;;;5069025;28;20049;-74
2024/03/17 10:54:39;;;;;;;7.50;5.20;;;21.40;45.40;;;;;;5072507;28;20045;-74
2024/03/17 10:57:36;;;;;;;7.63;5.55;;;21.70;45.90;;;;;;5057258;28;20049;-74
2024/03/17 11:00:08;;;;;;;6.10;4.85;;;21.30;47.30;;;;;;5080220;28;20052;-74
2024/03/17 11:02:39;;;;;;;6.75;4.68;;;21.20;46.90;;;;;;5069276;28;20110;-74
2024/03/17 11:05:16;;;;;;;5.95;4.30;;;20.90;44.50;;;;;;5062335;28;20487;-74
2024/03/17 11:07:45;;;;;;;5.63;4.15;;;20.40;43.20;;;;;;5062302;28;20048;-75
2024/03/17 11:10:23;;;;;;;5.65;4.85;;;20.10;44.60;;;;;;5080005;28;20052;-74
2024/03/17 11:12:52;;;;;;;5.68;4.68;;;19.80;45.20;;;;;;5064883;28;20052;-75
2024/03/17 11:15:26;;;;;;;5.25;4.10;;;19.80;46.20;;;;;;5067975;28;20052;-75
2024/03/17 11:17:54;;;;;;;5.72;4.50;;;19.70;46.00;;;;;;5067233;28;20110;-74
2024/03/17 11:20:31;;;;;;;5.53;4.15;;;19.70;47.30;;;;;;5044413;28;20060;-75
2024/03/17 11:23:00;;;;;;;7.60;5.28;;;19.60;48.20;;;;;;5051874;28;20061;-75
2024/03/17 11:25:27;;;;;;;7.35;4.53;;;19.30;48.80;;;;;;5051570;28;20053;-75
2024/03/17 11:27:58;;;;;;;6.30;4.15;;;19.20;49.10;;;;;;5052640;28;20064;-74
2024/03/17 11:31:16;;;;;;;4.35;3.92;;;20.00;47.70;;;;;;5054580;28;20056;-75
2024/03/17 11:33:43;;;;;;;4.45;3.92;;;21.40;45.50;;;;;;5066217;28;20398;-75
2024/03/17 11:36:24;;;;;;;6.80;4.07;;;22.60;41.00;;;;;;5060943;28;20045;-75
2024/03/17 11:38:50;;;;;;;8.80;4.18;;;23.00;40.80;;;;;;5057541;28;20049;-76
2024/03/17 11:41:41;;;;;;;5.75;4.60;;;23.10;41.20;;;;;;5060788;28;20049;-75
2024/03/17 11:47:04;;;;;;;6.53;4.10;;;25.20;41.40;;;;;;5067897;28;20052;-74
2024/03/17 11:49:30;;;;;;;4.85;3.85;;;26.30;36.20;;;;;;5066914;28;20052;-75
2024/03/17 11:52:01;;;;;;;4.80;4.20;;;27.60;36.20;;;;;;5057010;28;20137;-75
2024/03/17 11:54:35;;;;;;;5.13;3.83;;;28.90;32.00;;;;;;5055062;28;20049;-78
2024/03/17 11:57:05;;;;;;;5.68;3.72;;;29.90;31.00;;;;;;5053904;28;20495;-78
2024/03/17 11:59:32;;;;;;;4.72;3.85;;;31.00;29.20;;;;;;5051750;28;20060;-78
2024/03/17 12:01:59;;;;;;;5.00;3.40;;;31.90;28.00;;;;;;5034739;28;20541;-77
2024/03/17 12:04:25;;;;;;;3.58;3.22;;;31.70;27.20;;;;;;5050940;28;20053;-77
2024/03/17 12:06:54;;;;;;;6.10;3.33;;;30.60;27.80;;;;;;5053228;28;20450;-77
2024/03/17 12:09:24;;;;;;;5.85;3.65;;;30.40;28.40;;;;;;5054031;28;20049;-78
2024/03/17 12:12:06;;;;;;;4.40;3.30;;;30.50;28.10;;;;;;5055769;28;20063;-78
2024/03/17 12:14:33;;;;;;;5.30;3.70;;;31.00;28.40;;;;;;5063457;28;20056;-78
2024/03/17 12:17:10;;;;;;;4.60;3.38;;;31.00;27.00;;;;;;5063044;28;20064;-78
2024/03/17 12:19:40;;;;;;;5.22;3.33;;;30.40;28.50;;;;;;5060505;28;20052;-78
2024/03/17 12:22:11;;;;;;;5.85;3.63;;;30.50;28.00;;;;;;5061958;28;20075;-77
2024/03/17 12:24:37;;;;;;;4.60;2.90;;;30.90;28.20;;;;;;5066732;28;20052;-78
2024/03/17 12:27:06;;;;;;;3.80;3.28;;;31.50;26.90;;;;;;5067155;28;20079;-77
2024/03/17 12:29:40;;;;;;;3.95;3.13;;;32.00;26.60;;;;;;5069674;28;20407;-78
2024/03/17 12:32:13;;;;;;;6.03;3.00;;;32.50;27.40;;;;;;5054735;28;20049;-78
2024/03/17 12:34:41;;;;;;;4.28;3.15;;;32.50;27.30;;;;;;5040294;28;20049;-78
2024/03/17 12:37:08;;;;;;;4.10;3.15;;;31.70;26.50;;;;;;5075078;28;20068;-77
2024/03/17 12:39:39;;;;;;;6.72;3.47;;;31.60;26.90;;;;;;5054596;28;20139;-77
2024/03/17 12:42:09;;;;;;;4.05;2.97;;;31.10;26.70;;;;;;5055194;28;20060;-77
2024/03/17 12:44:48;;;;;;;3.38;2.90;;;30.70;27.40;;;;;;5071123;28;20052;-78
2024/03/17 12:47:19;;;;;;;3.42;2.58;;;30.70;28.80;;;;;;5058442;28;20045;-78
2024/03/17 12:49:56;;;;;;;3.67;2.97;;;30.80;29.30;;;;;;5053972;28;20498;-77
2024/03/17 12:52:23;;;;;;;5.45;2.70;;;30.70;28.20;;;;;;5050175;28;20045;-78
2024/03/17 13:00:36;;;;;;;3.85;3.30;;;30.40;28.80;;;;;;5080631;28;20057;-78
2024/03/17 13:03:07;;;;;;;4.97;3.20;;;29.80;27.70;;;;;;5065808;28;20071;-78
2024/03/17 13:05:36;;;;;;;5.20;2.97;;;28.90;30.00;;;;;;5069249;28;20049;-78